Terminal Aerodrome Forecast
Issued by NWS

Home | Current Version | Previous Version | Text Only | Print | Product List | Glossary On
Versions: 1 2 3 4 5 6 7 8 9 10 11 12 13 14 15 16 17 18 19 20
136
FTUS42 KMLB 261931 AAA
TAFFPR
TAF AMD
KFPR 261931Z 2620/2718 03013G20KT P6SM SKC
     FM270000 05008KT P6SM SCT035
     FM270400 08007KT P6SM BKN035
     FM271500 11014G20KT P6SM VCSH BKN035=

USA.gov is the U.S. government's official web portal to all federal, state and local government web resources and services.